Edmonton International Airport
CYEG : now visible

Airfield :











YOU CAN JOIN US ON...

 
LOGIN :

Register | Disclaimer

   EN    FR    IT 

 









Legend :    VFR   Marginal VFR   IFR   Intensive IFR   Very Intensive IFR
Visi :
Ceiling :
>= 8 km
>= 3000ft
5 to 8 km
1000 to 3000 ft
1500m to 5 km
500 to 1000 ft
800 to 1500m
200 to 500 ft
< 800m
< 200 ft
Symbols :   Thunderstorms  Fog  Heavy snow  Heavy precipitations  Wind > 20 kt







- Airport Elevation : 2373 ft
- IATA code : YEG


CYEG - Edmonton International

CURRENT METAR :
  • 160600Z 30004KT 20SM BKN082 BKN110 BKN250 12/11 A2961 RMK AC6AC1CI1 AC TR VIRGA N SLP036 DENSITY ALT 3000FT

EXPIRED METARs :
  • 160500Z 33004KT 20SM FEW080 BKN110 BKN250 13/11 A2960 RMK AC2AC3CI2 DIST SH N SLP034 DENSITY ALT 3000FT
  • 160400Z CCA 32005KT 20SM SCT080 BKN110 14/11 A2960 RMK AC3AC5 VIRGA OVRHD SLP033 DENSITY ALT 3200FT
  • 160300Z 01005KT 20SM FEW080 BKN100 OVC160 15/11 A2960 RMK AC2AC5AC3 VIRGA N SLP035 DENSITY ALT 3300FT

TAF TAF CYEG
Valid from the 16 at 06:00 until the 17 at 06:00 UTC


160538Z 1606/1706 34005KT P6SM FEW080 BKN120
FM160800 30005KT P6SM SCT080 BKN200
TEMPO 1608/1610 P6SM VCSH BKN080
FM161000 28008KT P6SM SCT010 BKN025
TEMPO 1610/1616 2SM BR SCT004 OVC010
FM161600 32005KT P6SM SCT012
TEMPO 1616/1619 BKN012
FM161900 34008KT P6SM SCT040 BKN220
FM170200 34010KT P6SM BKN040
FM170500 34008KT P6SM -SHRA BKN012 RMK NXT FCST BY 160900Z
No reported NOTAMs for that airfield.



MET'MAP, your aeronautical weather chart ! - Copyright ORBIFLY December 2007 - Disclaimer

ORBIFLY MET'MAP TEAM :

Programming & Development : Alexandra Zaïnal
Concept & Development : Baudouin d'Aumeries
Co-Development & Prog : Marc-Olivier Méhu
Technical & hardware support : Manuel Goepfert

Contact : metmap@orbifly.com




SOURCES & CREDITS :

   NOAA       Earth
Advisory